createdAt,value
2022-10-08T00:01:53.447Z,17.10
2022-10-08T00:04:22.387Z,17.10
2022-10-08T00:06:50.698Z,17.10
2022-10-08T00:09:19.000Z,17.00
2022-10-08T00:11:47.306Z,17.00
2022-10-08T00:14:15.612Z,17.00
2022-10-08T00:16:45.746Z,16.90
2022-10-08T00:19:15.996Z,16.90
2022-10-08T00:21:46.553Z,16.90
2022-10-08T00:24:19.140Z,16.80
2022-10-08T00:26:47.777Z,16.80
2022-10-08T00:29:19.806Z,16.80
2022-10-08T00:31:51.515Z,16.60
2022-10-08T00:34:23.760Z,16.60
2022-10-08T00:36:54.051Z,16.60
2022-10-08T00:39:25.290Z,16.60
2022-10-08T00:41:56.073Z,16.50
2022-10-08T00:44:58.508Z,16.40
2022-10-08T00:47:36.955Z,16.40
2022-10-08T00:50:12.312Z,16.40
2022-10-08T00:52:45.292Z,16.40
2022-10-08T00:55:16.215Z,16.30
2022-10-08T00:57:44.770Z,16.30
2022-10-08T01:00:17.563Z,16.30
2022-10-08T01:02:47.669Z,16.30
2022-10-08T01:05:21.003Z,16.20
2022-10-08T01:07:55.005Z,16.20
2022-10-08T01:10:32.719Z,16.30
2022-10-08T01:13:21.379Z,16.30
2022-10-08T01:15:58.833Z,16.30
2022-10-08T01:18:40.795Z,16.30
2022-10-08T01:21:13.377Z,16.30
2022-10-08T01:24:21.041Z,16.20
2022-10-08T01:27:02.073Z,16.30
2022-10-08T01:29:38.593Z,16.30
2022-10-08T01:32:14.202Z,16.30
2022-10-08T01:34:48.024Z,16.30
2022-10-08T01:37:24.752Z,16.30
2022-10-08T01:39:56.529Z,16.30
2022-10-08T01:42:27.102Z,16.30
2022-10-08T01:45:00.692Z,16.30
2022-10-08T01:47:31.802Z,16.30
2022-10-08T01:50:05.543Z,16.30
2022-10-08T01:52:38.705Z,16.20
2022-10-08T01:55:14.840Z,16.20
2022-10-08T01:57:44.257Z,16.20
2022-10-08T02:00:17.470Z,16.20
2022-10-08T02:02:46.344Z,16.20
2022-10-08T02:05:14.763Z,16.20
2022-10-08T02:07:44.557Z,16.20
2022-10-08T02:10:15.855Z,16.20
2022-10-08T02:12:45.559Z,16.20
2022-10-08T02:15:19.318Z,16.10
2022-10-08T02:17:58.252Z,16.10
2022-10-08T02:20:33.747Z,16.10
2022-10-08T02:23:09.658Z,16.20
2022-10-08T02:25:44.465Z,16.20
2022-10-08T02:28:20.346Z,16.20
2022-10-08T02:30:55.210Z,16.20
2022-10-08T02:33:28.236Z,16.20
2022-10-08T02:35:59.927Z,16.20
2022-10-08T02:38:34.132Z,16.20
2022-10-08T02:41:06.096Z,16.20
2022-10-08T02:43:38.723Z,16.20
2022-10-08T02:46:14.634Z,16.20
2022-10-08T02:48:49.849Z,16.20
2022-10-08T02:51:19.721Z,16.20
2022-10-08T02:53:49.430Z,16.20
2022-10-08T02:56:27.580Z,16.10
2022-10-08T02:58:57.266Z,16.10
2022-10-08T03:01:37.839Z,16.10
2022-10-08T03:04:11.887Z,16.10
2022-10-08T03:06:40.939Z,16.10
2022-10-08T03:09:13.431Z,16.10
2022-10-08T03:11:41.944Z,16.10
2022-10-08T03:14:14.596Z,16.10
2022-10-08T03:16:46.956Z,16.10
2022-10-08T03:19:17.930Z,16.10
2022-10-08T03:21:49.136Z,16.10
2022-10-08T03:24:18.054Z,16.10
2022-10-08T03:26:46.229Z,16.00
2022-10-08T03:29:14.677Z,16.00
2022-10-08T03:31:44.249Z,16.00
2022-10-08T03:34:12.445Z,15.90
2022-10-08T03:36:40.674Z,15.90
2022-10-08T03:39:10.201Z,15.90
2022-10-08T03:41:38.922Z,15.80
2022-10-08T03:44:09.577Z,15.80
2022-10-08T03:46:37.884Z,15.80
2022-10-08T03:49:07.490Z,15.80
2022-10-08T03:51:35.771Z,15.80
2022-10-08T03:54:04.071Z,15.80
2022-10-08T03:56:32.347Z,15.80
2022-10-08T03:59:01.871Z,15.80
2022-10-08T04:01:30.612Z,15.80
2022-10-08T04:03:58.902Z,15.70
2022-10-08T04:06:28.589Z,15.70
2022-10-08T04:09:00.986Z,15.70
2022-10-08T04:11:30.816Z,15.70
2022-10-08T04:13:59.119Z,15.70
2022-10-08T04:16:27.255Z,15.70
2022-10-08T04:18:55.510Z,15.70
2022-10-08T04:21:23.802Z,15.70
2022-10-08T04:23:53.406Z,15.60
2022-10-08T04:26:21.512Z,15.60
2022-10-08T04:28:49.722Z,15.60
2022-10-08T04:31:21.904Z,15.60
2022-10-08T04:33:51.717Z,15.60
2022-10-08T04:36:22.950Z,15.60
2022-10-08T04:39:00.585Z,15.60
2022-10-08T04:41:32.312Z,15.60
2022-10-08T04:44:02.207Z,15.60
2022-10-08T04:46:31.415Z,15.70
2022-10-08T04:49:00.264Z,15.70
2022-10-08T04:51:29.330Z,15.70
2022-10-08T04:53:59.458Z,15.80
2022-10-08T04:56:30.885Z,15.80
2022-10-08T04:59:00.873Z,15.80
2022-10-08T05:01:30.640Z,15.80
2022-10-08T05:04:00.750Z,15.80
2022-10-08T05:06:31.512Z,15.80
2022-10-08T05:09:04.245Z,15.70
2022-10-08T05:11:33.774Z,15.70
2022-10-08T05:14:02.856Z,15.70
2022-10-08T05:16:31.477Z,15.80
2022-10-08T05:18:59.970Z,15.70
2022-10-08T05:21:30.557Z,15.80
2022-10-08T05:24:02.587Z,15.80
2022-10-08T05:26:57.536Z,15.80
2022-10-08T05:29:22.837Z,15.80
2022-10-08T05:31:51.050Z,15.80
2022-10-08T05:34:19.282Z,15.80
2022-10-08T05:36:47.629Z,15.70
2022-10-08T05:39:17.443Z,15.70
2022-10-08T05:41:45.686Z,15.60
2022-10-08T05:44:14.130Z,15.60
2022-10-08T05:46:42.455Z,15.60
2022-10-08T05:49:19.738Z,15.50
2022-10-08T05:51:48.263Z,15.50
2022-10-08T05:54:19.462Z,15.50
2022-10-08T05:56:47.690Z,15.50
2022-10-08T05:59:21.581Z,15.40
2022-10-08T06:01:50.360Z,15.40
2022-10-08T06:04:19.483Z,15.40
2022-10-08T06:06:48.421Z,15.40
2022-10-08T06:09:22.033Z,15.30
2022-10-08T06:11:50.727Z,15.30
2022-10-08T06:14:20.433Z,15.30
2022-10-08T06:16:48.975Z,15.30
2022-10-08T06:19:17.650Z,15.20
2022-10-08T06:21:46.215Z,15.30
2022-10-08T06:24:14.974Z,15.20
2022-10-08T06:26:45.502Z,15.20
2022-10-08T06:29:16.938Z,15.30
2022-10-08T06:31:46.273Z,15.30
2022-10-08T06:34:14.773Z,15.40
2022-10-08T06:36:43.179Z,15.50
2022-10-08T06:39:15.285Z,15.50
2022-10-08T06:41:45.364Z,15.50
2022-10-08T06:44:15.909Z,15.50
2022-10-08T06:46:44.450Z,15.60
2022-10-08T06:49:13.562Z,15.60
2022-10-08T06:51:42.015Z,15.70
2022-10-08T06:54:10.253Z,15.80
2022-10-08T06:56:39.669Z,15.80
2022-10-08T06:59:10.079Z,15.90
2022-10-08T07:01:38.418Z,16.00
2022-10-08T07:04:07.481Z,16.00
2022-10-08T07:06:36.417Z,16.00
2022-10-08T07:09:06.779Z,16.10
2022-10-08T07:11:35.150Z,16.10
2022-10-08T07:14:03.475Z,16.20
2022-10-08T07:16:33.626Z,16.20
2022-10-08T07:19:01.833Z,16.30
2022-10-08T07:21:31.339Z,16.40
2022-10-08T07:24:01.638Z,16.50
2022-10-08T07:26:34.200Z,16.60
2022-10-08T07:29:06.177Z,16.80
2022-10-08T07:31:37.975Z,16.80
2022-10-08T07:34:08.689Z,16.90
2022-10-08T07:36:37.485Z,17.00
2022-10-08T07:39:09.424Z,17.10
2022-10-08T07:41:37.679Z,17.30
2022-10-08T07:44:07.114Z,17.40
2022-10-08T07:46:38.818Z,17.60
2022-10-08T07:49:07.431Z,17.80
2022-10-08T07:51:36.704Z,18.00
2022-10-08T07:54:08.440Z,18.20
2022-10-08T07:56:37.913Z,18.40
2022-10-08T07:59:07.183Z,18.60
2022-10-08T08:01:37.090Z,18.70
2022-10-08T08:04:08.638Z,18.80
2022-10-08T08:06:42.091Z,18.90
2022-10-08T08:09:11.841Z,19.00
2022-10-08T08:11:40.313Z,19.20
2022-10-08T08:14:08.810Z,19.30
2022-10-08T08:16:39.421Z,19.40
2022-10-08T08:19:09.978Z,19.60
2022-10-08T08:21:40.086Z,19.60
2022-10-08T08:24:11.561Z,19.80
2022-10-08T08:26:43.319Z,20.00
2022-10-08T08:29:15.858Z,20.10
2022-10-08T08:31:47.709Z,20.20
2022-10-08T08:34:19.196Z,20.30
2022-10-08T08:36:49.837Z,20.40
2022-10-08T08:39:20.403Z,20.60
2022-10-08T08:42:27.905Z,20.70
2022-10-08T08:45:00.807Z,20.90
2022-10-08T08:47:35.926Z,21.10
2022-10-08T08:50:10.284Z,21.20
2022-10-08T08:52:41.857Z,21.40
2022-10-08T08:55:17.010Z,21.60
2022-10-08T08:57:55.759Z,21.80
2022-10-08T09:00:31.572Z,21.90
2022-10-08T09:03:05.176Z,22.10
2022-10-08T09:05:37.224Z,22.30
2022-10-08T09:08:15.490Z,22.40
2022-10-08T09:10:49.558Z,22.40
2022-10-08T09:13:23.811Z,22.20
2022-10-08T09:15:52.974Z,22.10
2022-10-08T09:18:22.841Z,21.90
2022-10-08T09:20:51.105Z,21.70
2022-10-08T09:23:21.623Z,21.50
2022-10-08T09:25:55.782Z,21.20
2022-10-08T09:28:47.979Z,21.10
2022-10-08T09:31:27.082Z,21.10
2022-10-08T09:34:15.975Z,21.30
2022-10-08T09:36:47.631Z,21.40
2022-10-08T09:39:20.437Z,21.60
2022-10-08T09:42:09.545Z,21.60
2022-10-08T09:44:42.248Z,21.70
2022-10-08T09:47:15.277Z,21.70
2022-10-08T09:49:45.266Z,21.60
2022-10-08T09:52:20.475Z,21.50
2022-10-08T09:54:53.366Z,21.50
2022-10-08T09:57:23.179Z,21.60
2022-10-08T09:59:55.090Z,21.70
2022-10-08T10:02:31.968Z,21.80
2022-10-08T10:05:04.415Z,21.80
2022-10-08T10:07:42.162Z,21.70
2022-10-08T10:10:22.655Z,21.60
2022-10-08T10:12:55.659Z,21.70
2022-10-08T10:15:30.022Z,21.90
2022-10-08T10:18:02.740Z,22.00
2022-10-08T10:20:37.428Z,22.00
2022-10-08T10:23:13.555Z,22.00
2022-10-08T10:26:14.025Z,22.00
2022-10-08T10:28:47.195Z,22.10
2022-10-08T10:31:21.026Z,22.20
2022-10-08T10:33:55.409Z,22.40
2022-10-08T10:36:31.666Z,22.50
2022-10-08T10:39:11.442Z,22.50
2022-10-08T10:41:44.630Z,22.40
2022-10-08T10:44:15.797Z,22.20
2022-10-08T10:46:49.660Z,21.80
2022-10-08T10:49:21.077Z,21.30
2022-10-08T10:52:07.301Z,20.90
2022-10-08T10:54:58.988Z,20.60
2022-10-08T10:57:42.641Z,20.60
2022-10-08T11:00:19.159Z,20.60
2022-10-08T11:02:54.869Z,20.80
2022-10-08T11:05:26.503Z,21.00
2022-10-08T11:08:21.030Z,20.90
2022-10-08T11:11:07.209Z,20.80
2022-10-08T11:13:53.150Z,20.70
2022-10-08T11:16:40.070Z,20.70
2022-10-08T11:19:27.256Z,20.80
2022-10-08T11:22:06.717Z,20.80
2022-10-08T11:25:04.832Z,20.90
2022-10-08T11:27:46.824Z,21.10
2022-10-08T11:30:20.197Z,21.20
2022-10-08T11:32:54.576Z,21.30
2022-10-08T11:35:31.930Z,21.40
2022-10-08T11:38:10.484Z,21.60
2022-10-08T11:40:45.593Z,21.70
2022-10-08T11:43:26.286Z,21.80
2022-10-08T11:46:28.592Z,21.90
2022-10-08T11:48:58.974Z,21.90
2022-10-08T11:51:38.874Z,21.70
2022-10-08T11:54:15.506Z,21.70
2022-10-08T11:56:48.464Z,21.80
2022-10-08T11:59:39.426Z,21.90
2022-10-08T12:02:23.917Z,22.00
2022-10-08T12:04:55.172Z,22.10
2022-10-08T12:07:30.117Z,22.10
2022-10-08T12:10:32.949Z,22.00
2022-10-08T12:13:31.293Z,21.80
2022-10-08T12:16:07.766Z,21.70
2022-10-08T12:18:54.566Z,21.60
2022-10-08T12:21:56.061Z,21.60
2022-10-08T12:24:57.444Z,21.60
2022-10-08T12:27:37.418Z,21.50
2022-10-08T12:30:11.691Z,21.30
2022-10-08T12:32:58.212Z,21.10
2022-10-08T12:35:30.895Z,20.90
2022-10-08T12:38:31.864Z,20.70
2022-10-08T12:41:15.043Z,20.70
2022-10-08T12:43:50.707Z,20.70
2022-10-08T12:46:36.828Z,20.80
2022-10-08T12:49:16.448Z,20.90
2022-10-08T12:51:55.476Z,21.00
2022-10-08T12:57:17.825Z,21.10
2022-10-08T12:59:47.532Z,21.10
2022-10-08T13:02:30.073Z,21.10
2022-10-08T13:04:58.408Z,21.20
2022-10-08T13:07:29.850Z,21.30
2022-10-08T13:10:00.289Z,21.40
2022-10-08T13:12:29.396Z,21.50
2022-10-08T13:15:05.210Z,21.60
2022-10-08T13:17:37.393Z,21.70
2022-10-08T13:20:16.915Z,21.80
2022-10-08T13:22:45.604Z,21.90
2022-10-08T13:25:39.220Z,21.90
2022-10-08T13:28:14.613Z,21.90
2022-10-08T13:30:46.313Z,21.90
2022-10-08T13:33:20.948Z,21.80
2022-10-08T13:35:54.702Z,21.70
2022-10-08T13:38:26.291Z,21.50
2022-10-08T13:40:58.746Z,21.40
2022-10-08T13:43:27.707Z,21.30
2022-10-08T13:45:56.065Z,21.20
2022-10-08T13:48:26.455Z,21.20
2022-10-08T13:50:56.982Z,21.10
2022-10-08T13:53:27.795Z,21.10
2022-10-08T13:55:56.012Z,21.10
2022-10-08T13:58:24.295Z,21.10
2022-10-08T14:00:54.578Z,21.10
2022-10-08T14:03:23.247Z,21.10
2022-10-08T14:05:53.403Z,21.10
2022-10-08T14:08:27.578Z,21.00
2022-10-08T14:10:58.053Z,21.00
2022-10-08T14:13:29.299Z,20.90
2022-10-08T14:15:57.823Z,20.80
2022-10-08T14:18:26.628Z,20.80
2022-10-08T14:20:56.266Z,20.70
2022-10-08T14:23:24.453Z,20.60
2022-10-08T14:25:53.659Z,20.60
2022-10-08T14:28:21.989Z,20.60
2022-10-08T14:30:50.632Z,20.60
2022-10-08T14:33:18.851Z,20.60
2022-10-08T14:35:47.186Z,20.60
2022-10-08T14:38:16.897Z,20.50
2022-10-08T14:40:45.098Z,20.50
2022-10-08T14:43:13.308Z,20.50
2022-10-08T14:45:41.605Z,20.60
2022-10-08T14:48:11.631Z,20.60
2022-10-08T14:50:39.851Z,20.60
2022-10-08T14:53:08.214Z,20.60
2022-10-08T14:55:54.434Z,20.50
2022-10-08T14:58:26.210Z,20.40
2022-10-08T15:00:55.357Z,20.30
2022-10-08T15:03:24.059Z,20.20
2022-10-08T15:05:53.111Z,20.10
2022-10-08T15:08:22.078Z,20.00
2022-10-08T15:10:52.001Z,20.00
2022-10-08T15:13:20.146Z,19.90
2022-10-08T15:15:48.341Z,19.90
2022-10-08T15:18:16.657Z,19.90
2022-10-08T15:20:44.918Z,19.80
2022-10-08T15:23:13.195Z,19.80
2022-10-08T15:25:41.807Z,19.80
2022-10-08T15:28:11.679Z,19.80
2022-10-08T15:30:40.982Z,19.80
2022-10-08T15:33:09.114Z,19.80
2022-10-08T15:35:37.373Z,19.70
2022-10-08T15:38:05.554Z,19.70
2022-10-08T15:40:33.824Z,19.70
2022-10-08T15:43:01.953Z,19.60
2022-10-08T15:45:31.590Z,19.60
2022-10-08T15:47:59.814Z,19.60
2022-10-08T15:50:27.945Z,19.50
2022-10-08T15:52:56.142Z,19.50
2022-10-08T15:55:24.284Z,19.40
2022-10-08T15:57:52.405Z,19.40
2022-10-08T16:00:22.562Z,19.40
2022-10-08T16:02:52.401Z,19.30
2022-10-08T16:05:21.838Z,19.20
2022-10-08T16:07:50.010Z,19.20
2022-10-08T16:10:18.572Z,19.10
2022-10-08T16:12:47.081Z,19.10
2022-10-08T16:15:15.749Z,19.00
2022-10-08T16:17:44.107Z,18.90
2022-10-08T16:20:13.735Z,18.80
2022-10-08T16:22:42.104Z,18.90
2022-10-08T16:25:10.723Z,18.80
2022-10-08T16:27:38.929Z,18.80
2022-10-08T16:30:09.020Z,18.70
2022-10-08T16:32:37.172Z,18.70
2022-10-08T16:35:06.117Z,18.60
2022-10-08T16:37:35.950Z,18.50
2022-10-08T16:40:04.255Z,18.50
2022-10-08T16:42:32.550Z,18.50
2022-10-08T16:45:00.817Z,18.40
2022-10-08T16:47:29.258Z,18.40
2022-10-08T16:49:57.656Z,18.30
2022-10-08T16:52:25.878Z,18.30
2022-10-08T16:54:56.069Z,18.20
2022-10-08T16:57:25.424Z,18.20
2022-10-08T16:59:54.053Z,18.20
2022-10-08T17:02:25.830Z,18.10
2022-10-08T17:04:54.479Z,18.10
2022-10-08T17:07:22.613Z,18.00
2022-10-08T17:09:50.772Z,18.00
2022-10-08T17:12:21.980Z,17.90
2022-10-08T17:14:50.391Z,17.90
2022-10-08T17:17:18.579Z,17.80
2022-10-08T17:19:46.724Z,17.80
2022-10-08T17:22:16.738Z,17.80
2022-10-08T17:24:45.353Z,17.70
2022-10-08T17:27:13.632Z,17.70
2022-10-08T17:29:43.189Z,17.60
2022-10-08T17:32:11.588Z,17.60
2022-10-08T17:34:39.870Z,17.60
2022-10-08T17:37:08.449Z,17.50
2022-10-08T17:39:36.595Z,17.50
2022-10-08T17:42:07.348Z,17.40
2022-10-08T17:44:35.692Z,17.40
2022-10-08T17:47:05.457Z,17.30
2022-10-08T17:49:33.735Z,17.30
2022-10-08T17:52:01.967Z,17.30
2022-10-08T17:54:30.110Z,17.20
2022-10-08T17:56:58.677Z,17.20
2022-10-08T17:59:27.257Z,17.20
2022-10-08T18:01:56.070Z,17.10
2022-10-08T18:04:25.781Z,17.10
2022-10-08T18:06:59.772Z,17.00
2022-10-08T18:09:30.920Z,17.00
2022-10-08T18:11:59.246Z,17.00
2022-10-08T18:14:27.491Z,16.90
2022-10-08T18:16:56.596Z,16.90
2022-10-08T18:19:26.600Z,16.90
2022-10-08T18:21:54.837Z,16.80
2022-10-08T18:24:23.161Z,16.80
2022-10-08T18:26:51.782Z,16.80
2022-10-08T18:29:19.934Z,16.70
2022-10-08T18:31:48.153Z,16.60
2022-10-08T18:34:21.378Z,16.60
2022-10-08T18:36:51.111Z,16.50
2022-10-08T18:39:26.103Z,16.50
2022-10-08T18:41:56.559Z,16.50
2022-10-08T18:44:26.715Z,16.40
2022-10-08T18:46:55.085Z,16.40
2022-10-08T18:49:30.188Z,16.40
2022-10-08T18:52:01.419Z,16.30
2022-10-08T18:54:29.898Z,16.20
2022-10-08T18:57:00.321Z,16.30
2022-10-08T18:59:29.276Z,16.20
2022-10-08T19:01:59.502Z,16.20
2022-10-08T19:04:28.379Z,16.10
2022-10-08T19:07:00.622Z,16.10
2022-10-08T19:09:28.962Z,16.10
2022-10-08T19:11:57.864Z,16.10
2022-10-08T19:14:26.139Z,16.00
2022-10-08T19:16:54.294Z,16.00
2022-10-08T19:19:24.206Z,16.00
2022-10-08T19:21:54.393Z,15.90
2022-10-08T19:24:29.106Z,15.80
2022-10-08T19:26:58.398Z,15.80
2022-10-08T19:29:29.642Z,15.70
2022-10-08T19:36:08.179Z,15.60
2022-10-08T19:38:36.650Z,15.60
2022-10-08T19:41:10.386Z,15.50
2022-10-08T19:43:46.514Z,15.60
2022-10-08T19:47:15.343Z,15.50
2022-10-08T19:49:45.538Z,15.40
2022-10-08T19:52:14.380Z,15.40
2022-10-08T19:54:43.500Z,15.40
2022-10-08T19:57:13.150Z,15.30
2022-10-08T20:03:17.699Z,15.30
2022-10-08T20:05:45.927Z,15.20
2022-10-08T20:08:14.292Z,15.20
2022-10-08T20:10:42.514Z,15.20
2022-10-08T20:13:43.720Z,15.20
2022-10-08T20:16:14.375Z,15.20
2022-10-08T20:18:42.757Z,15.20
2022-10-08T20:21:13.123Z,15.20
2022-10-08T20:23:41.676Z,15.20
2022-10-08T20:26:12.105Z,15.20
2022-10-08T20:28:40.392Z,15.20
2022-10-08T20:31:16.085Z,15.10
2022-10-08T20:33:46.291Z,15.20
2022-10-08T20:36:18.748Z,15.10
2022-10-08T20:38:46.995Z,15.10
2022-10-08T20:41:15.232Z,15.10
2022-10-08T20:43:43.462Z,15.10
2022-10-08T20:46:15.591Z,15.00
2022-10-08T20:48:45.827Z,15.00
2022-10-08T20:51:16.965Z,14.90
2022-10-08T20:53:53.281Z,14.90
2022-10-08T20:56:24.620Z,15.00
2022-10-08T20:58:54.266Z,15.00
2022-10-08T21:01:29.515Z,14.90
2022-10-08T21:03:58.194Z,14.90
2022-10-08T21:06:29.296Z,14.90
2022-10-08T21:08:59.847Z,14.90
2022-10-08T21:11:31.063Z,14.90
2022-10-08T21:14:01.650Z,14.90
2022-10-08T21:16:34.257Z,14.90
2022-10-08T21:19:05.075Z,14.90
2022-10-08T21:21:34.714Z,14.90
2022-10-08T21:24:03.188Z,14.90
2022-10-08T21:26:33.232Z,14.80
2022-10-08T21:29:04.099Z,14.80
2022-10-08T21:31:36.150Z,14.80
2022-10-08T21:34:05.211Z,14.70
2022-10-08T21:36:35.661Z,14.70
2022-10-08T21:39:06.625Z,14.70
2022-10-08T21:41:36.622Z,14.70
2022-10-08T21:44:07.320Z,14.60
2022-10-08T21:46:39.882Z,14.60
2022-10-08T21:49:12.245Z,14.60
2022-10-08T21:51:40.403Z,14.50
2022-10-08T21:54:10.751Z,14.50
2022-10-08T21:56:41.494Z,14.40
2022-10-08T21:59:13.217Z,14.40
2022-10-08T22:01:44.453Z,14.30
2022-10-08T22:04:15.913Z,14.30
2022-10-08T22:06:47.543Z,14.30
2022-10-08T22:09:18.979Z,14.20
2022-10-08T22:11:47.681Z,14.20
2022-10-08T22:14:17.317Z,14.10
2022-10-08T22:16:47.501Z,14.00
2022-10-08T22:19:16.341Z,13.90
2022-10-08T22:21:45.507Z,13.90
2022-10-08T22:24:14.192Z,13.80
2022-10-08T22:26:46.025Z,13.80
2022-10-08T22:29:15.242Z,13.80
2022-10-08T22:31:43.942Z,13.80
2022-10-08T22:34:13.993Z,13.70
2022-10-08T22:36:44.909Z,13.70
2022-10-08T22:39:13.346Z,13.70
2022-10-08T22:41:41.621Z,13.70
2022-10-08T22:44:09.998Z,13.70
2022-10-08T22:46:40.997Z,13.60
2022-10-08T22:49:12.159Z,13.50
2022-10-08T22:51:43.837Z,13.40
2022-10-08T22:54:12.135Z,13.40
2022-10-08T22:56:40.405Z,13.40
2022-10-08T22:59:08.684Z,13.40
2022-10-08T23:01:36.998Z,13.40
2022-10-08T23:04:05.360Z,13.40
2022-10-08T23:06:35.822Z,13.40
2022-10-08T23:09:07.959Z,13.30
2022-10-08T23:11:36.448Z,13.30
2022-10-08T23:14:05.907Z,13.30
2022-10-08T23:16:35.441Z,13.30
2022-10-08T23:19:06.107Z,13.20
2022-10-08T23:21:35.073Z,13.20
2022-10-08T23:24:05.537Z,13.20
2022-10-08T23:26:33.865Z,13.10
2022-10-08T23:29:02.764Z,13.10
2022-10-08T23:31:33.589Z,13.10
2022-10-08T23:34:02.767Z,13.10
2022-10-08T23:36:33.617Z,13.10
2022-10-08T23:39:04.077Z,13.10
2022-10-08T23:41:32.253Z,13.00
2022-10-08T23:44:00.603Z,13.10
2022-10-08T23:46:31.231Z,13.00
2022-10-08T23:49:00.719Z,13.00
2022-10-08T23:51:31.968Z,13.00
2022-10-08T23:54:01.313Z,13.00
2022-10-08T23:56:31.409Z,13.00
2022-10-08T23:59:00.010Z,13.00
